Time;durP1;ratioP1;P1;durP2;ratioP2;P2;SDS_P1;SDS_P2;PMS_P1;PMS_P2;Temp;Humidity;BMP_temperature;BMP_pressure;BME280_temperature;BME280_humidity;BME280_pressure;Samples;Min_cycle;Max_cycle;Signal;HPM_P1;HPM_P2
2022/03/20 00:02:01;;;;;;;10.35;4.63;;;;;;;;;;4964468;28;20066;-85
2022/03/20 00:04:27;;;;;;;10.00;5.90;;;;;;;;;;4959466;28;20105;-85
2022/03/20 00:06:53;;;;;;;12.27;5.15;;;;;;;;;;4964218;28;20046;-85
2022/03/20 00:09:19;;;;;;;8.45;4.82;;;;;;;;;;4980067;28;20035;-85
2022/03/20 00:11:45;;;;;;;7.13;3.55;;;;;;;;;;4963755;28;20051;-85
2022/03/20 00:14:11;;;;;;;12.25;5.45;;;;;;;;;;4978186;28;20036;-85
2022/03/20 00:16:37;;;;;;;13.90;5.35;;;;;;;;;;4983868;28;20026;-85
2022/03/20 00:19:05;;;;;;;13.57;5.28;;;;;;;;;;4980865;28;20039;-85
2022/03/20 00:21:31;;;;;;;9.70;4.35;;;;;;;;;;4981919;28;20027;-86
2022/03/20 00:23:58;;;;;;;13.45;5.00;;;;;;;;;;4986430;28;20026;-85
2022/03/20 00:26:24;;;;;;;11.23;4.60;;;;;;;;;;4986993;28;21108;-85
2022/03/20 00:28:50;;;;;;;12.93;5.35;;;;;;;;;;4982277;28;20072;-85
2022/03/20 00:31:16;;;;;;;10.10;5.18;;;;;;;;;;4970050;28;20058;-84
2022/03/20 00:33:42;;;;;;;7.90;3.63;;;;;;;;;;4985373;28;20030;-85
2022/03/20 00:36:08;;;;;;;9.50;4.55;;;;;;;;;;4966718;28;20023;-85
2022/03/20 00:38:34;;;;;;;11.27;5.07;;;;;;;;;;4981024;28;20137;-85
2022/03/20 00:41:03;;;;;;;9.77;4.65;;;;;;;;;;4967285;28;20125;-85
2022/03/20 00:43:29;;;;;;;15.88;5.70;;;;;;;;;;4974679;28;20035;-85
2022/03/20 00:45:55;;;;;;;15.85;5.35;;;;;;;;;;4969216;28;20033;-85
2022/03/20 00:48:21;;;;;;;10.02;5.07;;;;;;;;;;4983951;28;20056;-85
2022/03/20 00:50:48;;;;;;;9.25;4.82;;;;;;;;;;4982774;28;20097;-85
2022/03/20 00:53:14;;;;;;;13.15;5.47;;;;;;;;;;4968589;28;20022;-85
2022/03/20 00:55:40;;;;;;;14.75;5.35;;;;;;;;;;4964266;28;20030;-85
2022/03/20 00:58:06;;;;;;;10.38;4.60;;;;;;;;;;4974610;28;20142;-85
2022/03/20 01:00:32;;;;;;;18.80;5.15;;;;;;;;;;4972196;28;20035;-85
2022/03/20 01:02:59;;;;;;;12.75;5.00;;;;;;;;;;4964204;28;20061;-85
2022/03/20 01:05:25;;;;;;;14.80;5.38;;;;;;;;;;4985869;28;20023;-85
2022/03/20 01:07:52;;;;;;;10.60;5.00;;;;;;;;;;4969594;28;20037;-85
2022/03/20 01:10:18;;;;;;;15.13;6.13;;;;;;;;;;4981846;28;20029;-84
2022/03/20 01:12:44;;;;;;;12.43;5.22;;;;;;;;;;4984816;28;20479;-85
2022/03/20 01:15:11;;;;;;;12.32;5.22;;;;;;;;;;4968431;28;20121;-85
2022/03/20 01:17:38;;;;;;;12.40;5.72;;;;;;;;;;4971606;28;20027;-85
2022/03/20 01:20:05;;;;;;;9.90;4.85;;;;;;;;;;4968749;28;20121;-85
2022/03/20 01:22:31;;;;;;;12.73;4.93;;;;;;;;;;4985614;28;20109;-85
2022/03/20 01:24:57;;;;;;;10.98;5.78;;;;;;;;;;4980730;28;20149;-85
2022/03/20 01:27:23;;;;;;;15.65;5.55;;;;;;;;;;4978900;28;20107;-85
2022/03/20 01:29:49;;;;;;;13.32;6.32;;;;;;;;;;4965215;28;20055;-85
2022/03/20 01:32:16;;;;;;;12.65;5.18;;;;;;;;;;4973756;28;20038;-84
2022/03/20 01:34:42;;;;;;;10.98;5.13;;;;;;;;;;4979607;28;20039;-85
2022/03/20 01:37:08;;;;;;;10.80;5.35;;;;;;;;;;4979862;28;20729;-85
2022/03/20 01:39:35;;;;;;;14.43;4.07;;;;;;;;;;4981076;28;20034;-84
2022/03/20 01:42:01;;;;;;;15.27;6.15;;;;;;;;;;4983041;28;20574;-84
2022/03/20 01:44:31;;;;;;;19.58;4.75;;;;;;;;;;4965631;28;20121;-85
2022/03/20 01:46:57;;;;;;;12.93;5.35;;;;;;;;;;4965011;28;20462;-85
2022/03/20 01:49:23;;;;;;;11.93;5.43;;;;;;;;;;4965374;28;20026;-85
2022/03/20 01:54:34;;;;;;;13.90;5.05;;;;;;;;;;4987396;28;20046;-85
2022/03/20 01:57:00;;;;;;;13.15;5.50;;;;;;;;;;4964409;28;20822;-85
2022/03/20 01:59:26;;;;;;;14.32;5.78;;;;;;;;;;4967445;28;20040;-85
2022/03/20 02:01:52;;;;;;;15.85;6.05;;;;;;;;;;4966333;28;20050;-85
2022/03/20 02:04:18;;;;;;;17.77;5.82;;;;;;;;;;4963426;28;20035;-85
2022/03/20 02:06:44;;;;;;;15.23;5.65;;;;;;;;;;4968341;28;20069;-84
2022/03/20 02:09:11;;;;;;;13.45;6.60;;;;;;;;;;4967255;28;20052;-85
2022/03/20 02:11:37;;;;;;;12.25;5.38;;;;;;;;;;4980915;28;20487;-85
2022/03/20 02:14:04;;;;;;;20.35;6.25;;;;;;;;;;4961567;28;20420;-85
2022/03/20 02:16:31;;;;;;;13.02;5.55;;;;;;;;;;4966888;28;20030;-85
2022/03/20 02:18:57;;;;;;;16.17;6.30;;;;;;;;;;4976714;28;20030;-85
2022/03/20 02:21:45;;;;;;;13.85;6.22;;;;;;;;;;4980543;28;20035;-84
2022/03/20 02:24:30;;;;;;;13.63;6.50;;;;;;;;;;4962235;28;20030;-85
2022/03/20 02:27:03;;;;;;;15.85;4.85;;;;;;;;;;4968221;28;20506;-85
2022/03/20 02:29:29;;;;;;;17.65;6.85;;;;;;;;;;4964244;28;20030;-85
2022/03/20 02:31:58;;;;;;;19.75;6.65;;;;;;;;;;4982200;28;21312;-85
2022/03/20 02:34:24;;;;;;;15.15;6.75;;;;;;;;;;4964895;28;20038;-85
2022/03/20 02:36:51;;;;;;;19.63;7.45;;;;;;;;;;4959789;28;20258;-85
2022/03/20 02:39:16;;;;;;;16.00;6.75;;;;;;;;;;4980923;28;20030;-85
2022/03/20 02:41:44;;;;;;;17.40;7.72;;;;;;;;;;4962569;28;20042;-85
2022/03/20 02:44:10;;;;;;;21.13;7.68;;;;;;;;;;4965877;28;20030;-85
2022/03/20 02:46:37;;;;;;;18.30;7.85;;;;;;;;;;4978344;28;20041;-85
2022/03/20 02:49:06;;;;;;;17.63;7.47;;;;;;;;;;4979717;28;20065;-86
2022/03/20 02:51:32;;;;;;;13.27;6.75;;;;;;;;;;4965339;28;20375;-85
2022/03/20 02:53:59;;;;;;;13.23;6.80;;;;;;;;;;4962812;28;20517;-85
2022/03/20 02:56:28;;;;;;;18.70;7.47;;;;;;;;;;4965735;28;20614;-85
2022/03/20 02:58:55;;;;;;;18.90;8.18;;;;;;;;;;4982638;28;20031;-85
2022/03/20 03:01:21;;;;;;;19.90;8.93;;;;;;;;;;4980410;28;20093;-85
2022/03/20 03:03:47;;;;;;;24.52;9.85;;;;;;;;;;4999396;28;20034;-84
2022/03/20 03:06:13;;;;;;;18.17;8.15;;;;;;;;;;5000375;28;20051;-85
2022/03/20 03:11:24;;;;;;;18.08;9.00;;;;;;;;;;4999283;28;20531;-85
2022/03/20 03:13:50;;;;;;;21.83;8.68;;;;;;;;;;5002332;28;20022;-85
2022/03/20 03:16:17;;;;;;;17.65;7.88;;;;;;;;;;4987544;28;20479;-85
2022/03/20 03:18:44;;;;;;;18.50;8.65;;;;;;;;;;4982747;28;20401;-85
2022/03/20 03:21:15;;;;;;;28.92;7.93;;;;;;;;;;4981475;28;20057;-85
2022/03/20 03:23:42;;;;;;;15.80;7.80;;;;;;;;;;4984128;28;20084;-85
2022/03/20 03:26:08;;;;;;;30.52;9.82;;;;;;;;;;4999390;28;20046;-85
2022/03/20 03:28:35;;;;;;;16.95;8.75;;;;;;;;;;4983391;28;20034;-85
2022/03/20 03:31:02;;;;;;;20.17;9.05;;;;;;;;;;4983122;28;20083;-85
2022/03/20 03:33:28;;;;;;;17.05;9.52;;;;;;;;;;4999548;28;20037;-85
2022/03/20 03:35:56;;;;;;;21.27;9.57;;;;;;;;;;4981901;28;20720;-85
2022/03/20 03:38:23;;;;;;;19.42;9.10;;;;;;;;;;4980205;28;20029;-85
2022/03/20 03:40:49;;;;;;;21.77;9.85;;;;;;;;;;4986976;28;20702;-85
2022/03/20 03:43:17;;;;;;;24.83;9.63;;;;;;;;;;4986128;28;20639;-85
2022/03/20 03:45:43;;;;;;;22.10;8.77;;;;;;;;;;4984069;28;20087;-85
2022/03/20 03:48:10;;;;;;;26.35;10.38;;;;;;;;;;4983824;28;20038;-85
2022/03/20 03:50:37;;;;;;;22.77;8.93;;;;;;;;;;4980490;28;20612;-85
2022/03/20 03:53:03;;;;;;;20.45;8.85;;;;;;;;;;4981304;28;20478;-85
2022/03/20 03:55:31;;;;;;;27.85;10.57;;;;;;;;;;4997001;28;20050;-85
2022/03/20 03:57:57;;;;;;;15.70;7.78;;;;;;;;;;4986500;28;20037;-85
2022/03/20 04:00:24;;;;;;;20.92;8.43;;;;;;;;;;4981899;28;20145;-85
2022/03/20 04:02:50;;;;;;;12.90;6.85;;;;;;;;;;5002279;28;20061;-85
2022/03/20 04:05:20;;;;;;;14.77;8.00;;;;;;;;;;4997135;28;20373;-85
2022/03/20 04:07:47;;;;;;;21.80;8.07;;;;;;;;;;4986591;28;20121;-86
2022/03/20 04:10:14;;;;;;;17.90;9.35;;;;;;;;;;4985492;28;20030;-85
2022/03/20 04:12:46;;;;;;;17.92;8.73;;;;;;;;;;4984443;28;20069;-86
2022/03/20 04:15:13;;;;;;;22.73;11.00;;;;;;;;;;4999591;28;20017;-85
2022/03/20 04:17:40;;;;;;;19.33;8.95;;;;;;;;;;4999813;28;20470;-85
2022/03/20 04:20:10;;;;;;;28.23;10.35;;;;;;;;;;4981943;28;20114;-86
2022/03/20 04:22:37;;;;;;;22.02;11.38;;;;;;;;;;4985876;28;20030;-85
2022/03/20 04:25:04;;;;;;;16.05;7.65;;;;;;;;;;4997472;28;20042;-85
2022/03/20 04:27:31;;;;;;;21.13;9.20;;;;;;;;;;4980506;28;20030;-85
2022/03/20 04:29:57;;;;;;;22.63;11.30;;;;;;;;;;4980686;28;20038;-85
2022/03/20 04:32:23;;;;;;;19.15;9.15;;;;;;;;;;4988088;28;20042;-85
2022/03/20 04:34:51;;;;;;;31.65;12.15;;;;;;;;;;4983592;28;20445;-85
2022/03/20 04:37:18;;;;;;;25.67;12.55;;;;;;;;;;4979237;28;20029;-85
2022/03/20 04:39:44;;;;;;;25.88;9.70;;;;;;;;;;4997206;28;20383;-86
2022/03/20 04:42:11;;;;;;;29.42;9.77;;;;;;;;;;4986287;28;20074;-85
2022/03/20 04:44:40;;;;;;;22.02;9.77;;;;;;;;;;4984512;28;20041;-85
2022/03/20 04:58:29;;;;;;;24.13;9.15;;;;;;;;;;4982505;28;20117;-85
2022/03/20 04:58:29;;;;;;;28.05;10.80;;;;;;;;;;5001867;28;20042;-85
2022/03/20 05:00:55;;;;;;;16.65;8.68;;;;;;;;;;4986386;28;20308;-86
2022/03/20 05:03:22;;;;;;;31.08;11.43;;;;;;;;;;4984137;28;20030;-85
2022/03/20 05:05:48;;;;;;;23.67;10.98;;;;;;;;;;4984943;28;20066;-85
2022/03/20 05:08:14;;;;;;;23.35;11.02;;;;;;;;;;4984372;28;20045;-85
2022/03/20 05:13:25;;;;;;;20.20;10.25;;;;;;;;;;5001196;28;20456;-86
2022/03/20 05:15:55;;;;;;;21.70;9.88;;;;;;;;;;4985720;28;20030;-85
2022/03/20 05:18:21;;;;;;;21.05;8.63;;;;;;;;;;4986099;28;20513;-85
2022/03/20 05:20:47;;;;;;;24.38;11.63;;;;;;;;;;4987892;28;20124;-85
2022/03/20 05:23:13;;;;;;;23.50;11.07;;;;;;;;;;5002667;28;20029;-85
2022/03/20 05:25:39;;;;;;;23.15;10.52;;;;;;;;;;4998976;28;20026;-85
2022/03/20 05:28:06;;;;;;;26.45;9.30;;;;;;;;;;5002231;28;20034;-85
2022/03/20 05:30:33;;;;;;;25.73;11.80;;;;;;;;;;4999398;28;20142;-85
2022/03/20 05:33:05;;;;;;;24.48;11.32;;;;;;;;;;5005876;28;21058;-86
2022/03/20 05:35:31;;;;;;;25.17;11.35;;;;;;;;;;4984842;28;20593;-85
2022/03/20 05:37:58;;;;;;;19.67;9.48;;;;;;;;;;4985093;28;20030;-86
2022/03/20 05:40:24;;;;;;;26.00;11.23;;;;;;;;;;4999616;28;20372;-86
2022/03/20 05:42:50;;;;;;;21.48;10.43;;;;;;;;;;4987564;28;20097;-85
2022/03/20 05:45:16;;;;;;;23.60;11.77;;;;;;;;;;5003222;28;20057;-85
2022/03/20 05:47:42;;;;;;;23.65;11.93;;;;;;;;;;4987416;28;20060;-85
2022/03/20 05:50:08;;;;;;;26.65;12.10;;;;;;;;;;5005145;28;20036;-86
2022/03/20 05:52:42;;;;;;;25.48;11.25;;;;;;;;;;4996419;28;20042;-86
2022/03/20 05:55:08;;;;;;;26.35;11.82;;;;;;;;;;4985771;28;20061;-85
2022/03/20 06:00:22;;;;;;;36.60;12.95;;;;;;;;;;4999977;28;20044;-85
2022/03/20 06:02:48;;;;;;;24.77;11.95;;;;;;;;;;4982370;28;20068;-85
2022/03/20 06:05:14;;;;;;;26.95;11.63;;;;;;;;;;4999350;28;20038;-85
2022/03/20 06:07:44;;;;;;;21.88;11.00;;;;;;;;;;4996968;28;20129;-85
2022/03/20 06:10:20;;;;;;;26.35;11.35;;;;;;;;;;4998606;28;20030;-85
2022/03/20 06:12:47;;;;;;;29.88;12.48;;;;;;;;;;4987053;28;20065;-85
2022/03/20 06:15:13;;;;;;;37.17;13.35;;;;;;;;;;4984667;28;20026;-85
2022/03/20 06:17:41;;;;;;;23.27;10.10;;;;;;;;;;4982735;28;20129;-85
2022/03/20 06:20:08;;;;;;;21.75;11.40;;;;;;;;;;4999513;28;20025;-85
2022/03/20 06:22:35;;;;;;;34.08;11.15;;;;;;;;;;4986541;28;20088;-85
2022/03/20 06:25:06;;;;;;;29.83;12.98;;;;;;;;;;5000309;28;20034;-85
2022/03/20 06:27:41;;;;;;;27.05;10.55;;;;;;;;;;4988712;28;20083;-86
2022/03/20 06:30:08;;;;;;;23.05;10.23;;;;;;;;;;4999658;28;20040;-85
2022/03/20 06:32:37;;;;;;;27.70;13.27;;;;;;;;;;4984072;28;20084;-86
2022/03/20 06:35:03;;;;;;;25.55;10.95;;;;;;;;;;4982132;28;20045;-85
2022/03/20 06:37:35;;;;;;;29.52;13.95;;;;;;;;;;4984019;28;20022;-85
2022/03/20 06:40:01;;;;;;;28.08;12.27;;;;;;;;;;4981337;28;21930;-85
2022/03/20 06:42:28;;;;;;;24.02;11.15;;;;;;;;;;4986766;28;20036;-85
2022/03/20 06:44:55;;;;;;;28.02;13.18;;;;;;;;;;4981810;28;20746;-85
2022/03/20 06:47:23;;;;;;;25.83;11.77;;;;;;;;;;4997453;28;20040;-85
2022/03/20 06:49:50;;;;;;;27.35;12.38;;;;;;;;;;4988843;28;20037;-85
2022/03/20 06:52:16;;;;;;;27.13;12.73;;;;;;;;;;4982823;28;20045;-85
2022/03/20 06:54:42;;;;;;;23.20;10.82;;;;;;;;;;4986599;28;20496;-85
2022/03/20 06:57:08;;;;;;;19.38;9.57;;;;;;;;;;4983196;28;20030;-85
2022/03/20 06:59:34;;;;;;;30.27;13.45;;;;;;;;;;4981644;28;20551;-85
2022/03/20 07:02:00;;;;;;;30.83;11.50;;;;;;;;;;4999659;28;20179;-85
2022/03/20 07:04:26;;;;;;;29.50;13.07;;;;;;;;;;4984190;28;20038;-85
2022/03/20 07:06:53;;;;;;;27.20;14.10;;;;;;;;;;4984802;28;20037;-85
2022/03/20 07:09:19;;;;;;;34.78;13.20;;;;;;;;;;4984629;28;20038;-85
2022/03/20 07:11:45;;;;;;;31.92;12.95;;;;;;;;;;4998939;28;20041;-85
2022/03/20 07:14:11;;;;;;;36.72;13.05;;;;;;;;;;4995201;28;20058;-85
2022/03/20 07:16:37;;;;;;;21.70;9.93;;;;;;;;;;4981551;28;20072;-85
2022/03/20 07:19:05;;;;;;;38.33;11.75;;;;;;;;;;4997589;28;20033;-85
2022/03/20 07:21:32;;;;;;;28.75;12.32;;;;;;;;;;4996917;28;20030;-85
2022/03/20 07:23:59;;;;;;;24.63;12.55;;;;;;;;;;4985454;28;20036;-85
2022/03/20 07:31:55;;;;;;;25.10;11.88;;;;;;;;;;5003108;28;20536;-85
2022/03/20 07:34:22;;;;;;;30.17;12.38;;;;;;;;;;4981092;28;20503;-85
2022/03/20 07:36:48;;;;;;;28.05;12.27;;;;;;;;;;4985153;28;20101;-85
2022/03/20 07:39:14;;;;;;;30.00;10.48;;;;;;;;;;4983192;28;20032;-85
2022/03/20 07:41:40;;;;;;;29.50;13.95;;;;;;;;;;4985536;28;20034;-85
2022/03/20 07:44:06;;;;;;;25.52;11.60;;;;;;;;;;4995437;28;20022;-85
2022/03/20 07:46:32;;;;;;;30.48;13.75;;;;;;;;;;4984214;28;20037;-86
2022/03/20 07:49:00;;;;;;;19.55;10.82;;;;;;;;;;4982700;28;20030;-85
2022/03/20 07:51:26;;;;;;;21.95;12.20;;;;;;;;;;4985396;28;20033;-86
2022/03/20 07:53:53;;;;;;;24.25;12.13;;;;;;;;;;5001646;28;20030;-85
2022/03/20 07:56:22;;;;;;;23.95;11.18;;;;;;;;;;4977648;28;20119;-85
2022/03/20 07:58:48;;;;;;;24.75;10.55;;;;;;;;;;4986174;28;20037;-86
2022/03/20 08:01:21;;;;;;;21.08;10.75;;;;;;;;;;4985934;28;20266;-86
2022/03/20 08:03:55;;;;;;;26.10;11.35;;;;;;;;;;4994996;28;20026;-85
2022/03/20 08:06:21;;;;;;;25.90;12.07;;;;;;;;;;4990043;28;20069;-85
2022/03/20 08:08:47;;;;;;;28.52;12.43;;;;;;;;;;4994361;28;20592;-85
2022/03/20 08:11:14;;;;;;;31.00;11.40;;;;;;;;;;4993379;28;20085;-85
2022/03/20 08:13:40;;;;;;;23.08;11.73;;;;;;;;;;5002773;28;20038;-86
2022/03/20 08:16:06;;;;;;;26.30;13.70;;;;;;;;;;4985250;28;20022;-85
2022/03/20 08:18:32;;;;;;;29.33;12.23;;;;;;;;;;4995225;28;20092;-86
2022/03/20 08:20:58;;;;;;;32.20;11.80;;;;;;;;;;4982892;28;20038;-86
2022/03/20 08:23:24;;;;;;;26.00;13.52;;;;;;;;;;5004442;28;20104;-85
2022/03/20 08:25:50;;;;;;;21.80;12.07;;;;;;;;;;4992499;28;20511;-86
2022/03/20 08:28:17;;;;;;;32.80;12.23;;;;;;;;;;4990094;28;20482;-85
2022/03/20 08:30:43;;;;;;;30.38;13.90;;;;;;;;;;4990138;28;20038;-86
2022/03/20 08:33:09;;;;;;;23.40;11.85;;;;;;;;;;5005011;28;20385;-86
2022/03/20 08:35:35;;;;;;;26.58;11.70;;;;;;;;;;5002507;28;20035;-86
2022/03/20 08:38:03;;;;;;;22.45;11.23;;;;;;;;;;4995715;28;20038;-86
2022/03/20 08:40:30;;;;;;;26.40;13.25;;;;;;;;;;4990940;28;20025;-86
2022/03/20 08:42:56;;;;;;;22.40;11.75;;;;;;;;;;4985864;28;20049;-85
2022/03/20 08:45:23;;;;;;;31.70;14.30;;;;;;;;;;4989450;28;20405;-86
2022/03/20 08:47:50;;;;;;;29.80;14.52;;;;;;;;;;4990878;28;20050;-86
2022/03/20 08:50:18;;;;;;;22.48;12.70;;;;;;;;;;4999100;28;20088;-86
2022/03/20 08:52:44;;;;;;;28.08;14.32;;;;;;;;;;4998672;28;20070;-86
2022/03/20 08:55:11;;;;;;;26.50;12.48;;;;;;;;;;4985470;28;20041;-86
2022/03/20 08:57:41;;;;;;;29.08;14.20;;;;;;;;;;4982120;28;20030;-84
2022/03/20 09:00:12;;;;;;;27.75;14.50;;;;;;;;;;4997895;28;20042;-85
2022/03/20 09:02:45;;;;;;;25.48;12.40;;;;;;;;;;4996824;28;20050;-85
2022/03/20 09:05:11;;;;;;;25.65;12.63;;;;;;;;;;5000983;28;20033;-85
2022/03/20 09:07:38;;;;;;;28.10;12.60;;;;;;;;;;4990895;28;20037;-84
2022/03/20 09:10:04;;;;;;;34.33;14.98;;;;;;;;;;4985822;28;20258;-83
2022/03/20 09:12:30;;;;;;;34.80;16.50;;;;;;;;;;5001328;28;20096;-85
2022/03/20 09:14:57;;;;;;;24.05;11.52;;;;;;;;;;4985260;28;20616;-86
2022/03/20 09:20:08;;;;;;;25.13;13.43;;;;;;;;;;4997302;28;20044;-85
2022/03/20 09:22:34;;;;;;;30.70;15.63;;;;;;;;;;4987147;28;20485;-86
2022/03/20 09:25:00;;;;;;;31.25;14.90;;;;;;;;;;4984633;28;20672;-86
2022/03/20 09:27:26;;;;;;;29.50;15.50;;;;;;;;;;4982631;28;20038;-86
2022/03/20 09:29:52;;;;;;;32.67;15.68;;;;;;;;;;4981779;28;20037;-85
2022/03/20 09:32:20;;;;;;;44.30;17.42;;;;;;;;;;4982153;28;20041;-86
2022/03/20 09:34:46;;;;;;;28.80;16.33;;;;;;;;;;4998835;28;20017;-84
2022/03/20 09:37:12;;;;;;;29.38;14.65;;;;;;;;;;4982820;28;20018;-85
2022/03/20 09:39:38;;;;;;;33.45;15.70;;;;;;;;;;5000947;28;20041;-86
2022/03/20 09:42:06;;;;;;;28.95;14.00;;;;;;;;;;4985175;28;20038;-86
2022/03/20 09:44:34;;;;;;;31.05;15.45;;;;;;;;;;4982234;28;20057;-86
2022/03/20 09:47:01;;;;;;;31.35;17.35;;;;;;;;;;4981754;28;20169;-85
2022/03/20 09:49:28;;;;;;;34.47;13.70;;;;;;;;;;4996630;28;20089;-85
2022/03/20 09:51:54;;;;;;;29.65;16.08;;;;;;;;;;4983501;28;20034;-86
2022/03/20 09:54:21;;;;;;;34.03;17.42;;;;;;;;;;5001150;28;20783;-86
2022/03/20 09:56:51;;;;;;;29.60;15.40;;;;;;;;;;4998854;28;20140;-86
2022/03/20 09:59:17;;;;;;;34.92;16.17;;;;;;;;;;4993884;28;20113;-85
2022/03/20 10:01:43;;;;;;;31.83;16.33;;;;;;;;;;5000102;28;20170;-86
2022/03/20 10:04:11;;;;;;;33.00;16.15;;;;;;;;;;4979850;28;20118;-86
2022/03/20 10:06:37;;;;;;;42.08;17.73;;;;;;;;;;5002593;28;20034;-85
2022/03/20 10:09:04;;;;;;;30.13;15.25;;;;;;;;;;4982907;28;20491;-86
2022/03/20 10:11:31;;;;;;;30.65;16.38;;;;;;;;;;4999195;28;20046;-86
2022/03/20 10:14:16;;;;;;;30.33;16.52;;;;;;;;;;4985772;28;20459;-86
2022/03/20 10:16:48;;;;;;;32.03;16.13;;;;;;;;;;5002715;28;20026;-86
2022/03/20 10:19:23;;;;;;;33.17;17.27;;;;;;;;;;4996128;28;20042;-86
2022/03/20 10:21:53;;;;;;;28.05;14.63;;;;;;;;;;4994631;28;20065;-86
2022/03/20 10:24:22;;;;;;;38.45;18.92;;;;;;;;;;4982014;28;20056;-85
2022/03/20 10:26:52;;;;;;;34.58;18.00;;;;;;;;;;4986650;28;21529;-86
2022/03/20 10:29:18;;;;;;;36.60;17.30;;;;;;;;;;4982476;28;20112;-85
2022/03/20 10:31:51;;;;;;;28.65;16.02;;;;;;;;;;4984654;28;20111;-86
2022/03/20 10:34:17;;;;;;;35.65;17.23;;;;;;;;;;4996685;28;20065;-85
2022/03/20 10:36:44;;;;;;;33.85;17.15;;;;;;;;;;4995916;28;20673;-86
2022/03/20 10:39:19;;;;;;;39.20;17.73;;;;;;;;;;4979713;28;20080;-86
2022/03/20 10:41:45;;;;;;;33.45;18.23;;;;;;;;;;5000735;28;20053;-86
2022/03/20 10:44:13;;;;;;;31.23;16.05;;;;;;;;;;5000591;28;20041;-86
2022/03/20 10:46:39;;;;;;;32.58;17.58;;;;;;;;;;4996973;28;20030;-86
2022/03/20 10:49:20;;;;;;;42.05;19.52;;;;;;;;;;4978679;28;20074;-85
2022/03/20 10:51:46;;;;;;;32.50;18.45;;;;;;;;;;4982160;28;20524;-87
2022/03/20 10:54:20;;;;;;;32.58;15.85;;;;;;;;;;4993869;28;20028;-86
2022/03/20 10:56:56;;;;;;;30.23;15.57;;;;;;;;;;4981485;28;20026;-86
2022/03/20 10:59:23;;;;;;;38.03;16.88;;;;;;;;;;4997823;28;20036;-86
2022/03/20 11:02:01;;;;;;;27.30;16.52;;;;;;;;;;4978633;28;20042;-86
2022/03/20 11:04:28;;;;;;;39.42;19.40;;;;;;;;;;4992470;28;20201;-86
2022/03/20 11:06:54;;;;;;;38.22;15.88;;;;;;;;;;5003095;28;20048;-86
2022/03/20 11:09:21;;;;;;;41.35;20.60;;;;;;;;;;4999069;28;20092;-86
2022/03/20 11:11:51;;;;;;;33.28;17.25;;;;;;;;;;4985148;28;20072;-86
2022/03/20 11:14:19;;;;;;;32.40;14.50;;;;;;;;;;4985424;28;20042;-86
2022/03/20 11:16:50;;;;;;;36.17;18.67;;;;;;;;;;4996941;28;20356;-86
2022/03/20 11:19:17;;;;;;;33.65;17.48;;;;;;;;;;4999358;28;20076;-86
2022/03/20 11:21:45;;;;;;;38.28;18.88;;;;;;;;;;4997895;28;20543;-86
2022/03/20 11:24:12;;;;;;;31.70;19.05;;;;;;;;;;4994674;28;20482;-86
2022/03/20 11:26:43;;;;;;;30.42;16.35;;;;;;;;;;4999140;28;20540;-86
2022/03/20 11:29:11;;;;;;;29.45;15.65;;;;;;;;;;4983187;28;20153;-86
2022/03/20 11:31:37;;;;;;;39.55;18.83;;;;;;;;;;4998403;28;20030;-86
2022/03/20 11:34:05;;;;;;;33.13;17.73;;;;;;;;;;4990403;28;20260;-87
2022/03/20 11:36:32;;;;;;;33.70;17.02;;;;;;;;;;5000860;28;20038;-86
2022/03/20 11:39:09;;;;;;;37.88;18.30;;;;;;;;;;4978231;28;20413;-86
2022/03/20 11:41:35;;;;;;;38.65;19.58;;;;;;;;;;4999156;28;20258;-86
2022/03/20 11:44:15;;;;;;;38.38;19.60;;;;;;;;;;4980270;28;20097;-86
2022/03/20 11:46:43;;;;;;;34.20;19.38;;;;;;;;;;4985508;28;20036;-86
2022/03/20 11:49:17;;;;;;;31.95;17.88;;;;;;;;;;4997292;28;20040;-86
2022/03/20 11:52:02;;;;;;;34.20;18.55;;;;;;;;;;5001179;28;20049;-85
2022/03/20 11:54:51;;;;;;;40.72;18.92;;;;;;;;;;4997261;28;20053;-86
2022/03/20 11:57:27;;;;;;;39.33;19.73;;;;;;;;;;4976481;28;20038;-86
2022/03/20 11:59:57;;;;;;;35.35;18.25;;;;;;;;;;4983862;28;20033;-86
2022/03/20 12:02:43;;;;;;;31.55;17.05;;;;;;;;;;4982332;28;20050;-86
2022/03/20 12:05:16;;;;;;;41.60;19.80;;;;;;;;;;4948790;28;20038;-85
2022/03/20 12:07:51;;;;;;;37.47;18.15;;;;;;;;;;4979346;28;20069;-85
2022/03/20 12:10:17;;;;;;;42.35;20.15;;;;;;;;;;4997398;28;20038;-86
2022/03/20 12:12:54;;;;;;;33.13;15.65;;;;;;;;;;4988465;28;20483;-86
2022/03/20 12:15:23;;;;;;;30.95;18.52;;;;;;;;;;4979446;28;20073;-85
2022/03/20 12:18:00;;;;;;;30.05;17.42;;;;;;;;;;4979298;28;20470;-86
2022/03/20 12:20:45;;;;;;;44.08;19.98;;;;;;;;;;4994902;28;20041;-86
2022/03/20 12:23:29;;;;;;;38.88;18.48;;;;;;;;;;4997449;28;20457;-86
2022/03/20 12:25:56;;;;;;;28.27;15.95;;;;;;;;;;4980911;28;20437;-85
2022/03/20 12:28:28;;;;;;;40.13;20.55;;;;;;;;;;4999900;28;23237;-85
2022/03/20 12:30:54;;;;;;;36.22;17.17;;;;;;;;;;4984250;28;20046;-86
2022/03/20 12:33:28;;;;;;;36.17;19.98;;;;;;;;;;4997085;28;20038;-85
2022/03/20 12:35:55;;;;;;;32.33;17.13;;;;;;;;;;4982513;28;20075;-85
2022/03/20 12:38:35;;;;;;;38.25;19.27;;;;;;;;;;4978341;28;20025;-86
2022/03/20 12:41:07;;;;;;;36.20;17.38;;;;;;;;;;4994412;28;20117;-86
2022/03/20 12:43:33;;;;;;;31.00;17.17;;;;;;;;;;4980036;28;20030;-86
2022/03/20 12:46:00;;;;;;;33.45;18.27;;;;;;;;;;4978897;28;20393;-86
2022/03/20 12:48:31;;;;;;;34.53;16.05;;;;;;;;;;4997565;28;20148;-86
2022/03/20 12:51:04;;;;;;;42.88;19.50;;;;;;;;;;4982105;28;20069;-86
2022/03/20 12:53:40;;;;;;;32.28;16.15;;;;;;;;;;4984388;28;20661;-86
2022/03/20 12:58:51;;;;;;;34.75;18.58;;;;;;;;;;5001149;28;20053;-85
2022/03/20 13:01:17;;;;;;;35.50;17.63;;;;;;;;;;4983010;28;20545;-86
2022/03/20 13:03:44;;;;;;;38.50;19.02;;;;;;;;;;4981135;28;20046;-85
2022/03/20 13:06:10;;;;;;;32.55;19.00;;;;;;;;;;4995493;28;20053;-86
2022/03/20 13:08:38;;;;;;;37.22;19.52;;;;;;;;;;4981427;28;20456;-85
2022/03/20 13:11:48;;;;;;;33.97;18.60;;;;;;;;;;4984717;28;20038;-85
2022/03/20 13:13:54;;;;;;;34.70;17.35;;;;;;;;;;4995617;28;20180;-85
2022/03/20 13:16:24;;;;;;;33.00;18.85;;;;;;;;;;4976940;28;20085;-85
2022/03/20 13:18:53;;;;;;;33.42;17.38;;;;;;;;;;5000841;28;20034;-86
2022/03/20 13:21:19;;;;;;;38.03;19.98;;;;;;;;;;4978956;28;20058;-86
2022/03/20 13:23:46;;;;;;;36.90;19.17;;;;;;;;;;4997850;28;20038;-86
2022/03/20 13:26:17;;;;;;;31.35;18.50;;;;;;;;;;4986853;28;20038;-85
2022/03/20 13:28:44;;;;;;;41.88;18.55;;;;;;;;;;4986677;28;20046;-85
2022/03/20 13:31:12;;;;;;;44.70;20.00;;;;;;;;;;4981476;28;20492;-85
2022/03/20 13:33:40;;;;;;;37.60;20.88;;;;;;;;;;4991291;28;20061;-85
2022/03/20 13:36:08;;;;;;;38.13;18.02;;;;;;;;;;4995874;28;20441;-86
2022/03/20 13:38:39;;;;;;;38.13;18.17;;;;;;;;;;4998974;28;20354;-86
2022/03/20 13:41:16;;;;;;;41.15;19.80;;;;;;;;;;4978097;28;20461;-86
2022/03/20 13:43:43;;;;;;;39.92;19.48;;;;;;;;;;4986327;28;20484;-85
2022/03/20 13:46:11;;;;;;;35.75;18.55;;;;;;;;;;4996453;28;20034;-85
2022/03/20 13:48:37;;;;;;;35.63;18.42;;;;;;;;;;4979635;28;20108;-85
2022/03/20 13:51:04;;;;;;;34.22;18.60;;;;;;;;;;4977122;28;20030;-85
2022/03/20 13:53:31;;;;;;;33.38;18.35;;;;;;;;;;4995635;28;20033;-85
2022/03/20 13:55:57;;;;;;;29.90;15.23;;;;;;;;;;4999457;28;21549;-85
2022/03/20 13:58:23;;;;;;;38.70;19.17;;;;;;;;;;4994972;28;20030;-85
2022/03/20 14:00:58;;;;;;;30.40;18.20;;;;;;;;;;4995596;28;20037;-85
2022/03/20 14:03:30;;;;;;;34.20;16.80;;;;;;;;;;4987503;28;20045;-85
2022/03/20 14:05:56;;;;;;;37.25;18.30;;;;;;;;;;4984302;28;20031;-85
2022/03/20 14:08:23;;;;;;;29.45;16.77;;;;;;;;;;4978375;28;20029;-85
2022/03/20 14:10:50;;;;;;;34.85;18.40;;;;;;;;;;4981584;28;20498;-85
2022/03/20 14:13:18;;;;;;;36.50;20.15;;;;;;;;;;4979624;28;20122;-85
2022/03/20 14:15:53;;;;;;;35.30;15.90;;;;;;;;;;4996599;28;20030;-85
2022/03/20 14:18:19;;;;;;;45.50;20.40;;;;;;;;;;4989003;28;20576;-85
2022/03/20 14:20:45;;;;;;;36.25;19.67;;;;;;;;;;4990563;28;20549;-85
2022/03/20 14:23:12;;;;;;;36.88;19.00;;;;;;;;;;4996080;28;20042;-85
2022/03/20 14:25:42;;;;;;;36.30;18.42;;;;;;;;;;4984924;28;20026;-85
2022/03/20 14:28:14;;;;;;;34.00;17.48;;;;;;;;;;4983647;28;20045;-85
2022/03/20 14:41:55;;;;;;;39.28;18.40;;;;;;;;;;5007291;28;20045;-85
2022/03/20 14:44:21;;;;;;;32.65;19.45;;;;;;;;;;4988414;28;20065;-86
2022/03/20 14:46:52;;;;;;;37.83;18.83;;;;;;;;;;5000556;28;20450;-86
2022/03/20 14:49:21;;;;;;;39.38;19.20;;;;;;;;;;5001328;28;20379;-85
2022/03/20 14:51:47;;;;;;;38.55;18.67;;;;;;;;;;5002134;28;20068;-86
2022/03/20 14:54:14;;;;;;;42.40;19.73;;;;;;;;;;4987365;28;20121;-85
2022/03/20 14:56:41;;;;;;;41.00;19.20;;;;;;;;;;4983492;28;20038;-85
2022/03/20 14:59:09;;;;;;;37.65;18.80;;;;;;;;;;4985238;28;20049;-85
2022/03/20 15:01:53;;;;;;;40.60;19.50;;;;;;;;;;4995906;28;20124;-86
2022/03/20 15:04:21;;;;;;;36.67;19.48;;;;;;;;;;4993943;28;20061;-85
2022/03/20 15:06:48;;;;;;;31.33;15.95;;;;;;;;;;4985017;28;20424;-86
2022/03/20 15:12:00;;;;;;;38.57;19.03;;;;;;;;;;4995670;28;20036;-85